Marvel — V7OZ3 — position and weather

sailwx.info

Track history (hours):
 
Tides and Currents Weather Stations Pressure Air Temp Water Temp Dewpoint Dewpoint Depression Visibility Wind Speed Wind Dir Waves Ship Positions

Marvel

Last reported at 2018-Jul-09 13:50 UTC. Time now 2018-Jul-22 07:03 UTC.
Position N 23°34' W 017°30'.
Warning: this ship's position is 12 days out of date.

Length 182 m; draft 7.2 m.

Type: Tanker. MMSI: 538003191.

Date/timePositionNaut miles runAvg speedWind from/ knotsBaromVisibWave heightAir tempDewpointWater temp
2018-Jul-09 13:50N 23°34' W 017°30'3313.4
2018-Jul-09 11:22N 24°03' W 017°14'713.3
2018-Jul-09 10:50N 24°10' W 017°10'5212.7
2018-Jul-09 06:43N 24°57' W 016°45'1212.9
2018-Jul-09 05:45N 25°08' W 016°39'312.9
2018-Jul-09 05:30N 25°11' W 016°38'1413.2
2018-Jul-09 04:26N 25°23' W 016°30'713.2
2018-Jul-09 03:53N 25°29' W 016°25'513.3
2018-Jul-09 03:29N 25°33' W 016°21'8213.7
2018-Jul-08 21:28N 26°32' W 015°17'2913.0
2018-Jul-08 19:14N 26°53' W 014°55'512.4
2018-Jul-08 18:50N 26°57' W 014°51'412.4
2018-Jul-08 18:30N 26°60' W 014°48'812.5
2018-Jul-08 17:52N 27°05' W 014°42'512.8
2018-Jul-08 17:30N 27°09' W 014°38'712.6
2018-Jul-08 16:55N 27°14' W 014°32'513.0
2018-Jul-08 16:30N 27°18' W 014°28'713.1
2018-Jul-08 15:59N 27°23' W 014°23'713.6
2018-Jul-08 15:30N 27°28' W 014°18'713.8
2018-Jul-08 15:00N 27°33' W 014°12'713.7
2018-Jul-08 14:29N 27°38' W 014°07'613.5
2018-Jul-08 14:00N 27°42' W 014°02'713.6
2018-Jul-08 13:31N 27°47' W 013°56'713.4
2018-Jul-08 13:00N 27°52' W 013°51'713.4
2018-Jul-08 12:30N 27°57' W 013°46'713.6
2018-Jul-08 12:00N 28°03' W 013°42'713.7
2018-Jul-08 11:30N 28°08' W 013°37'713.5
2018-Jul-08 10:59N 28°14' W 013°33'713.6
2018-Jul-08 10:28N 28°20' W 013°29'613.5
2018-Jul-08 10:00N 28°25' W 013°24'713.4
2018-Jul-08 09:30N 28°31' W 013°20'713.2
2018-Jul-08 08:57N 28°37' W 013°15'613.4
2018-Jul-08 08:30N 28°42' W 013°12'1013.4
2018-Jul-08 07:46N 28°50' W 013°05'413.5
2018-Jul-08 07:30N 28°53' W 013°03'713.4
2018-Jul-08 06:59N 28°59' W 012°59'713.3
2018-Jul-08 06:27N 29°05' W 012°54'1013.2
2018-Jul-08 05:41N 29°13' W 012°47'313.3
2018-Jul-08 05:29N 29°15' W 012°46'613.3
2018-Jul-08 05:00N 29°20' W 012°42'2113.5
2018-Jul-08 03:29N 29°37' W 012°28'1113.5
2018-Jul-08 02:40N 29°46' W 012°21'213.5
2018-Jul-08 02:31N 29°48' W 012°20'1313.6
2018-Jul-08 01:33N 29°59' W 012°11'113.4
2018-Jul-08 01:30N 29°59' W 012°11'1613.5
2018-Jul-08 00:18N 30°13' W 012°00'413.5
2018-Jul-08 00:00N 30°16' W 011°58'2213.7
2018-Jul-07 22:24N 30°34' W 011°43'613.9
2018-Jul-07 22:00N 30°39' W 011°40'913.9
2018-Jul-07 21:21N 30°46' W 011°34'913.7
2018-Jul-07 20:42N 30°54' W 011°28'313.5
2018-Jul-07 20:30N 30°56' W 011°27'713.3
2018-Jul-07 20:00N 31°02' W 011°23'1513.2
2018-Jul-07 18:53N 31°13' W 011°12'1213.2
2018-Jul-07 17:58N 31°23' W 011°04'1813.3
2018-Jul-07 16:38N 31°38' W 010°52'213.6
2018-Jul-07 16:30N 31°40' W 010°51'713.5
2018-Jul-07 16:00N 31°45' W 010°47'713.7
2018-Jul-07 15:30N 31°51' W 010°42'2613.9
2018-Jul-07 13:37N 32°12' W 010°25'28613.2
2018-Jul-06 16:00N 35°39' W 006°26'4611.1
2018-Jul-06 11:51N 35°58' W 005°35'3 9.7
2018-Jul-06 11:30N 35°59' W 005°31'5 9.7
2018-Jul-06 11:00N 36°01' W 005°25'510.7
2018-Jul-06 10:30N 36°06' W 005°22'1 1.8
2018-Jul-06 09:43N 36°07' W 005°22'0 0.0
2018-Jul-06 09:19N 36°07' W 005°22'0 0.0
2018-Jul-06 07:01N 36°07' W 005°22'0 0.1
2018-Jul-06 06:43N 36°07' W 005°22'0 0.1
2018-Jul-06 06:25N 36°07' W 005°22'0 0.1
2018-Jul-06 05:58N 36°07' W 005°22'0 0.1
2018-Jul-06 05:28N 36°07' W 005°22'0 0.1
2018-Jul-06 04:49N 36°07' W 005°22'0 0.0
2018-Jul-06 04:19N 36°07' W 005°22'0 0.0
2018-Jul-06 03:55N 36°07' W 005°22'0 0.0
2018-Jul-06 03:25N 36°07' W 005°22'0 0.0
2018-Jul-06 02:55N 36°07' W 005°22'0 0.0
2018-Jul-06 02:28N 36°07' W 005°22'0 0.1
2018-Jul-06 01:49N 36°07' W 005°22'0 0.0
2018-Jul-05 21:34N 36°07' W 005°22'0 0.1
2018-Jul-05 21:25N 36°07' W 005°22'0 0.1
2018-Jul-05 20:25N 36°07' W 005°22'0 0.1
2018-Jul-05 19:58N 36°07' W 005°22'0 0.1
2018-Jul-05 19:25N 36°07' W 005°22'0 0.2
2018-Jul-05 18:56N 36°07' W 005°22'1 1.6
2018-Jul-05 18:30N 36°06' W 005°22'3 5.8
2018-Jul-05 18:00N 36°05' W 005°19'611.2
2018-Jul-05 17:30N 36°04' W 005°12'21511.4
2018-Jul-04 22:39N 36°28' W 000°46'211.6
2018-Jul-04 22:29N 36°28' W 000°44'1011.6
2018-Jul-04 21:36N 36°30' W 000°31'111.4
2018-Jul-04 21:29N 36°31' W 000°30'511.2
2018-Jul-04 21:00N 36°32' W 000°23'510.8
2018-Jul-04 20:30N 36°33' W 000°17'510.9
2018-Jul-04 20:00N 36°34' W 000°10'611.0
2018-Jul-04 19:30N 36°35' W 000°03'511.0
2018-Jul-04 19:00N 36°37' E 000°03'611.1
2018-Jul-04 18:29N 36°38' E 000°10'511.1
2018-Jul-04 18:00N 36°39' E 000°17'611.1
2018-Jul-04 17:30N 36°40' E 000°23'611.2
2018-Jul-04 17:00N 36°41' E 000°30'611.2
2018-Jul-04 16:26N 36°43' E 000°38'511.1
2018-Jul-04 16:00N 36°44' E 000°44'511.1
2018-Jul-04 15:30N 36°45' E 000°51'511.0
2018-Jul-04 15:00N 36°46' E 000°57'510.9
2018-Jul-04 14:30N 36°47' E 001°04'610.8
2018-Jul-04 13:59N 36°48' E 001°11'611.1
2018-Jul-04 13:30N 36°49' E 001°18'511.0
2018-Jul-04 13:00N 36°50' E 001°24'611.0
2018-Jul-04 12:30N 36°52' E 001°31'611.5
2018-Jul-04 12:00N 36°53' E 001°38'611.8
2018-Jul-04 11:30N 36°54' E 001°45'612.1
2018-Jul-04 11:00N 36°55' E 001°52'612.3
2018-Jul-04 10:30N 36°57' E 001°60'4812.7
2018-Jul-04 06:43N 37°07' E 002°59'413.0
2018-Jul-04 06:24N 37°08' E 003°04'513.0
2018-Jul-04 06:00N 37°09' E 003°10'713.3
2018-Jul-04 05:30N 37°10' E 003°18'713.2
2018-Jul-04 05:00N 37°11' E 003°27'713.4
2018-Jul-04 04:30N 37°13' E 003°34'713.3
2018-Jul-04 04:00N 37°14' E 003°43'713.3
2018-Jul-04 03:29N 37°15' E 003°51'613.3
2018-Jul-04 03:00N 37°17' E 003°59'713.0
2018-Jul-04 02:30N 37°18' E 004°07'713.2
2018-Jul-04 02:00N 37°20' E 004°15'613.0
2018-Jul-04 01:30N 37°21' E 004°23'612.9
2018-Jul-04 01:00N 37°22' E 004°31'713.0
2018-Jul-04 00:29N 37°24' E 004°40'613.0
2018-Jul-03 23:59N 37°25' E 004°47'713.5
2018-Jul-03 23:30N 37°25' E 004°56'713.7
2018-Jul-03 23:00N 37°26' E 005°04'713.8
2018-Jul-03 22:30N 37°26' E 005°13'714.0
2018-Jul-03 22:00N 37°26' E 005°22'714.3
2018-Jul-03 21:30N 37°27' E 005°31'714.1
2018-Jul-03 21:00N 37°27' E 005°40'713.8
2018-Jul-03 20:30N 37°27' E 005°48'713.7
2018-Jul-03 20:00N 37°28' E 005°57'713.7
2018-Jul-03 19:30N 37°28' E 006°06'713.5
2018-Jul-03 19:00N 37°29' E 006°14'713.5
2018-Jul-03 18:27N 37°29' E 006°23'29412.5
2018-Jul-02 18:58N 36°50' E 012°29'713.3
2018-Jul-02 18:27N 36°47' E 012°36'713.3
2018-Jul-02 17:57N 36°45' E 012°44'813.2
2018-Jul-02 17:21N 36°42' E 012°53'713.2
2018-Jul-02 16:51N 36°40' E 013°01'412.9
2018-Jul-02 16:30N 36°39' E 013°07'713.2
2018-Jul-02 16:00N 36°37' E 013°15'713.2
2018-Jul-02 15:30N 36°35' E 013°22'713.3
2018-Jul-02 15:00N 36°34' E 013°30'713.4
2018-Jul-02 14:30N 36°32' E 013°38'713.3
2018-Jul-02 14:00N 36°30' E 013°46'613.0
2018-Jul-02 13:30N 36°28' E 013°54'713.0
2018-Jul-02 12:56N 36°26' E 014°03'613.2
2018-Jul-02 12:29N 36°25' E 014°10'613.3
2018-Jul-02 12:00N 36°23' E 014°18'713.0
2018-Jul-02 11:30N 36°22' E 014°26'712.7
2018-Jul-02 10:57N 36°21' E 014°34'712.9
2018-Jul-02 10:25N 36°19' E 014°42'513.0
2018-Jul-02 10:00N 36°18' E 014°49'713.2
2018-Jul-02 09:28N 36°17' E 014°58'613.1
2018-Jul-02 09:00N 36°16' E 015°05'713.3
2018-Jul-02 08:30N 36°14' E 015°13'713.1
2018-Jul-02 08:00N 36°13' E 015°21'39412.0
2018-Jun-30 23:08N 36°30' E 023°29'513.4
2018-Jun-30 22:45N 36°35' E 023°33'313.3
2018-Jun-30 22:30N 36°38' E 023°35'713.2
2018-Jun-30 22:00N 36°43' E 023°39'713.4
2018-Jun-30 21:30N 36°49' E 023°43'713.4
2018-Jun-30 21:01N 36°55' E 023°47'713.5
2018-Jun-30 20:30N 37°01' E 023°50'713.4
2018-Jun-30 20:01N 37°07' E 023°54'713.1
2018-Jun-30 19:30N 37°13' E 023°57'713.1
2018-Jun-30 19:00N 37°19' E 024°00'612.8
2018-Jun-30 18:31N 37°25' E 024°03'712.7
2018-Jun-30 17:56N 37°32' E 024°07'1412.4
2018-Jun-30 16:49N 37°44' E 024°16'15812.8
2018-Jun-30 04:26N 40°00' E 025°58'714.1
2018-Jun-30 03:57N 40°01' E 026°07'  
Track history (hours):
 
Tides and Currents Weather Stations Pressure Air Temp Water Temp Dewpoint Dewpoint Depression Visibility Wind Speed Wind Dir Waves Ship Positions

Marvel

Last reported at 2018-Jul-09 13:50 UTC. Time now 2018-Jul-22 07:03 UTC.
Position N 23°34' W 017°30'.
Warning: this ship's position is 12 days out of date.

Length 182 m; draft 7.2 m.

Type: Tanker. MMSI: 538003191.

Date/timePositionNaut miles runAvg speedWind from/ knotsBaromVisibWave heightAir tempDewpointWater temp
2018-Jul-09 13:50N 23°34' W 017°30'3313.4
2018-Jul-09 11:22N 24°03' W 017°14'713.3
2018-Jul-09 10:50N 24°10' W 017°10'5212.7
2018-Jul-09 06:43N 24°57' W 016°45'1212.9
2018-Jul-09 05:45N 25°08' W 016°39'312.9
2018-Jul-09 05:30N 25°11' W 016°38'1413.2
2018-Jul-09 04:26N 25°23' W 016°30'713.2
2018-Jul-09 03:53N 25°29' W 016°25'513.3
2018-Jul-09 03:29N 25°33' W 016°21'8213.7
2018-Jul-08 21:28N 26°32' W 015°17'2913.0
2018-Jul-08 19:14N 26°53' W 014°55'512.4
2018-Jul-08 18:50N 26°57' W 014°51'412.4
2018-Jul-08 18:30N 26°60' W 014°48'812.5
2018-Jul-08 17:52N 27°05' W 014°42'512.8
2018-Jul-08 17:30N 27°09' W 014°38'712.6
2018-Jul-08 16:55N 27°14' W 014°32'513.0
2018-Jul-08 16:30N 27°18' W 014°28'713.1
2018-Jul-08 15:59N 27°23' W 014°23'713.6
2018-Jul-08 15:30N 27°28' W 014°18'713.8
2018-Jul-08 15:00N 27°33' W 014°12'713.7
2018-Jul-08 14:29N 27°38' W 014°07'613.5
2018-Jul-08 14:00N 27°42' W 014°02'713.6
2018-Jul-08 13:31N 27°47' W 013°56'713.4
2018-Jul-08 13:00N 27°52' W 013°51'713.4
2018-Jul-08 12:30N 27°57' W 013°46'713.6
2018-Jul-08 12:00N 28°03' W 013°42'713.7
2018-Jul-08 11:30N 28°08' W 013°37'713.5
2018-Jul-08 10:59N 28°14' W 013°33'713.6
2018-Jul-08 10:28N 28°20' W 013°29'613.5
2018-Jul-08 10:00N 28°25' W 013°24'713.4
2018-Jul-08 09:30N 28°31' W 013°20'713.2
2018-Jul-08 08:57N 28°37' W 013°15'613.4
2018-Jul-08 08:30N 28°42' W 013°12'1013.4
2018-Jul-08 07:46N 28°50' W 013°05'413.5
2018-Jul-08 07:30N 28°53' W 013°03'713.4
2018-Jul-08 06:59N 28°59' W 012°59'713.3
2018-Jul-08 06:27N 29°05' W 012°54'1013.2
2018-Jul-08 05:41N 29°13' W 012°47'313.3
2018-Jul-08 05:29N 29°15' W 012°46'613.3
2018-Jul-08 05:00N 29°20' W 012°42'2113.5
2018-Jul-08 03:29N 29°37' W 012°28'1113.5
2018-Jul-08 02:40N 29°46' W 012°21'213.5
2018-Jul-08 02:31N 29°48' W 012°20'1313.6
2018-Jul-08 01:33N 29°59' W 012°11'113.4
2018-Jul-08 01:30N 29°59' W 012°11'1613.5
2018-Jul-08 00:18N 30°13' W 012°00'413.5
2018-Jul-08 00:00N 30°16' W 011°58'2213.7
2018-Jul-07 22:24N 30°34' W 011°43'613.9
2018-Jul-07 22:00N 30°39' W 011°40'913.9
2018-Jul-07 21:21N 30°46' W 011°34'913.7
2018-Jul-07 20:42N 30°54' W 011°28'313.5
2018-Jul-07 20:30N 30°56' W 011°27'713.3
2018-Jul-07 20:00N 31°02' W 011°23'1513.2
2018-Jul-07 18:53N 31°13' W 011°12'1213.2
2018-Jul-07 17:58N 31°23' W 011°04'1813.3
2018-Jul-07 16:38N 31°38' W 010°52'213.6
2018-Jul-07 16:30N 31°40' W 010°51'713.5
2018-Jul-07 16:00N 31°45' W 010°47'713.7
2018-Jul-07 15:30N 31°51' W 010°42'2613.9
2018-Jul-07 13:37N 32°12' W 010°25'28613.2
2018-Jul-06 16:00N 35°39' W 006°26'4611.1
2018-Jul-06 11:51N 35°58' W 005°35'3 9.7
2018-Jul-06 11:30N 35°59' W 005°31'5 9.7
2018-Jul-06 11:00N 36°01' W 005°25'510.7
2018-Jul-06 10:30N 36°06' W 005°22'1 1.8
2018-Jul-06 09:43N 36°07' W 005°22'0 0.0
2018-Jul-06 09:19N 36°07' W 005°22'0 0.0
2018-Jul-06 07:01N 36°07' W 005°22'0 0.1
2018-Jul-06 06:43N 36°07' W 005°22'0 0.1
2018-Jul-06 06:25N 36°07' W 005°22'0 0.1
2018-Jul-06 05:58N 36°07' W 005°22'0 0.1
2018-Jul-06 05:28N 36°07' W 005°22'0 0.1
2018-Jul-06 04:49N 36°07' W 005°22'0 0.0
2018-Jul-06 04:19N 36°07' W 005°22'0 0.0
2018-Jul-06 03:55N 36°07' W 005°22'0 0.0
2018-Jul-06 03:25N 36°07' W 005°22'0 0.0
2018-Jul-06 02:55N 36°07' W 005°22'0 0.0
2018-Jul-06 02:28N 36°07' W 005°22'0 0.1
2018-Jul-06 01:49N 36°07' W 005°22'0 0.0
2018-Jul-05 21:34N 36°07' W 005°22'0 0.1
2018-Jul-05 21:25N 36°07' W 005°22'0 0.1
2018-Jul-05 20:25N 36°07' W 005°22'0 0.1
2018-Jul-05 19:58N 36°07' W 005°22'0 0.1
2018-Jul-05 19:25N 36°07' W 005°22'0 0.2
2018-Jul-05 18:56N 36°07' W 005°22'1 1.6
2018-Jul-05 18:30N 36°06' W 005°22'3 5.8
2018-Jul-05 18:00N 36°05' W 005°19'611.2
2018-Jul-05 17:30N 36°04' W 005°12'21511.4
2018-Jul-04 22:39N 36°28' W 000°46'211.6
2018-Jul-04 22:29N 36°28' W 000°44'1011.6
2018-Jul-04 21:36N 36°30' W 000°31'111.4
2018-Jul-04 21:29N 36°31' W 000°30'511.2
2018-Jul-04 21:00N 36°32' W 000°23'510.8
2018-Jul-04 20:30N 36°33' W 000°17'510.9
2018-Jul-04 20:00N 36°34' W 000°10'611.0
2018-Jul-04 19:30N 36°35' W 000°03'511.0
2018-Jul-04 19:00N 36°37' E 000°03'611.1
2018-Jul-04 18:29N 36°38' E 000°10'511.1
2018-Jul-04 18:00N 36°39' E 000°17'611.1
2018-Jul-04 17:30N 36°40' E 000°23'611.2
2018-Jul-04 17:00N 36°41' E 000°30'611.2
2018-Jul-04 16:26N 36°43' E 000°38'511.1
2018-Jul-04 16:00N 36°44' E 000°44'511.1
2018-Jul-04 15:30N 36°45' E 000°51'511.0
2018-Jul-04 15:00N 36°46' E 000°57'510.9
2018-Jul-04 14:30N 36°47' E 001°04'610.8
2018-Jul-04 13:59N 36°48' E 001°11'611.1
2018-Jul-04 13:30N 36°49' E 001°18'511.0
2018-Jul-04 13:00N 36°50' E 001°24'611.0
2018-Jul-04 12:30N 36°52' E 001°31'611.5
2018-Jul-04 12:00N 36°53' E 001°38'611.8
2018-Jul-04 11:30N 36°54' E 001°45'612.1
2018-Jul-04 11:00N 36°55' E 001°52'612.3
2018-Jul-04 10:30N 36°57' E 001°60'4812.7
2018-Jul-04 06:43N 37°07' E 002°59'413.0
2018-Jul-04 06:24N 37°08' E 003°04'513.0
2018-Jul-04 06:00N 37°09' E 003°10'713.3
2018-Jul-04 05:30N 37°10' E 003°18'713.2
2018-Jul-04 05:00N 37°11' E 003°27'713.4
2018-Jul-04 04:30N 37°13' E 003°34'713.3
2018-Jul-04 04:00N 37°14' E 003°43'713.3
2018-Jul-04 03:29N 37°15' E 003°51'613.3
2018-Jul-04 03:00N 37°17' E 003°59'713.0
2018-Jul-04 02:30N 37°18' E 004°07'713.2
2018-Jul-04 02:00N 37°20' E 004°15'613.0
2018-Jul-04 01:30N 37°21' E 004°23'612.9
2018-Jul-04 01:00N 37°22' E 004°31'713.0
2018-Jul-04 00:29N 37°24' E 004°40'613.0
2018-Jul-03 23:59N 37°25' E 004°47'713.5
2018-Jul-03 23:30N 37°25' E 004°56'713.7
2018-Jul-03 23:00N 37°26' E 005°04'713.8
2018-Jul-03 22:30N 37°26' E 005°13'714.0
2018-Jul-03 22:00N 37°26' E 005°22'714.3
2018-Jul-03 21:30N 37°27' E 005°31'714.1
2018-Jul-03 21:00N 37°27' E 005°40'713.8
2018-Jul-03 20:30N 37°27' E 005°48'713.7
2018-Jul-03 20:00N 37°28' E 005°57'713.7
2018-Jul-03 19:30N 37°28' E 006°06'713.5
2018-Jul-03 19:00N 37°29' E 006°14'713.5
2018-Jul-03 18:27N 37°29' E 006°23'29412.5
2018-Jul-02 18:58N 36°50' E 012°29'713.3
2018-Jul-02 18:27N 36°47' E 012°36'713.3
2018-Jul-02 17:57N 36°45' E 012°44'813.2
2018-Jul-02 17:21N 36°42' E 012°53'713.2
2018-Jul-02 16:51N 36°40' E 013°01'412.9
2018-Jul-02 16:30N 36°39' E 013°07'713.2
2018-Jul-02 16:00N 36°37' E 013°15'713.2
2018-Jul-02 15:30N 36°35' E 013°22'713.3
2018-Jul-02 15:00N 36°34' E 013°30'713.4
2018-Jul-02 14:30N 36°32' E 013°38'713.3
2018-Jul-02 14:00N 36°30' E 013°46'613.0
2018-Jul-02 13:30N 36°28' E 013°54'713.0
2018-Jul-02 12:56N 36°26' E 014°03'613.2
2018-Jul-02 12:29N 36°25' E 014°10'613.3
2018-Jul-02 12:00N 36°23' E 014°18'713.0
2018-Jul-02 11:30N 36°22' E 014°26'712.7
2018-Jul-02 10:57N 36°21' E 014°34'712.9
2018-Jul-02 10:25N 36°19' E 014°42'513.0
2018-Jul-02 10:00N 36°18' E 014°49'713.2
2018-Jul-02 09:28N 36°17' E 014°58'613.1
2018-Jul-02 09:00N 36°16' E 015°05'713.3
2018-Jul-02 08:30N 36°14' E 015°13'713.1
2018-Jul-02 08:00N 36°13' E 015°21'39412.0
2018-Jun-30 23:08N 36°30' E 023°29'513.4
2018-Jun-30 22:45N 36°35' E 023°33'313.3
2018-Jun-30 22:30N 36°38' E 023°35'713.2
2018-Jun-30 22:00N 36°43' E 023°39'713.4
2018-Jun-30 21:30N 36°49' E 023°43'713.4
2018-Jun-30 21:01N 36°55' E 023°47'713.5
2018-Jun-30 20:30N 37°01' E 023°50'713.4
2018-Jun-30 20:01N 37°07' E 023°54'713.1
2018-Jun-30 19:30N 37°13' E 023°57'713.1
2018-Jun-30 19:00N 37°19' E 024°00'612.8
2018-Jun-30 18:31N 37°25' E 024°03'712.7
2018-Jun-30 17:56N 37°32' E 024°07'1412.4
2018-Jun-30 16:49N 37°44' E 024°16'15812.8
2018-Jun-30 04:26N 40°00' E 025°58'714.1
2018-Jun-30 03:57N 40°01' E 026°07'  

Dump ship's entire track history